Wetterdaten: Dienstag, 25.08.2015
Datum Zeit Temp. A. Feuchte A. Luftdruck Regen Wind Richtung Richtung Sonnenschein ET UV Solar Taupunkt Windchill Windben Empfang
25.08.2015 00:03 20,3 C 69 % 1011,2 hPa 0,0 l/m 3,2 km/h (1 Bft) W 278 0 min 0,000 mm 0,0 UV-I 0 W/m 14,4 C 20,3 C 4,0 km/h (1 Bft) 0,00 %
25.08.2015 00:08 20,2 C 69 % 1011,3 hPa 0,0 l/m 2,2 km/h (1 Bft) W 265 0 min 0,000 mm 0,0 UV-I 0 W/m 14,3 C 20,2 C 4,0 km/h (1 Bft) 0,00 %
25.08.2015 00:13 20,2 C 69 % 1011,4 hPa 0,0 l/m 4,0 km/h (1 Bft) NO 34 0 min 0,000 mm 0,0 UV-I 0 W/m 14,3 C 20,2 C 4,0 km/h (1 Bft) 0,00 %
25.08.2015 00:18 20,0 C 70 % 1011,7 hPa 0,0 l/m 5,8 km/h (2 Bft) W-NW 284 0 min 0,000 mm 0,0 UV-I 0 W/m 14,4 C 20,0 C 11,9 km/h (2 Bft) 0,00 %
25.08.2015 00:23 19,8 C 70 % 1011,8 hPa 0,0 l/m 3,2 km/h (1 Bft) N 353 0 min 0,000 mm 0,0 UV-I 0 W/m 14,2 C 19,8 C 4,0 km/h (1 Bft) 0,00 %
25.08.2015 00:28 19,6 C 70 % 1012,2 hPa 0,0 l/m 10,8 km/h (2 Bft) W-SW 254 0 min 0,000 mm 0,0 UV-I 0 W/m 14,0 C 17,9 C 15,8 km/h (3 Bft) 0,00 %
25.08.2015 00:33 19,3 C 70 % 1012,3 hPa 0,0 l/m 2,9 km/h (1 Bft) N-NO 30 0 min 0,000 mm 0,0 UV-I 0 W/m 13,7 C 19,3 C 4,0 km/h (1 Bft) 0,00 %
25.08.2015 00:38 19,0 C 69 % 1012,4 hPa 0,0 l/m 6,5 km/h (2 Bft) NW 315 0 min 0,000 mm 0,0 UV-I 0 W/m 13,2 C 19,0 C 7,9 km/h (2 Bft) 0,00 %
25.08.2015 00:43 18,9 C 67 % 1012,7 hPa 0,0 l/m 1,8 km/h (1 Bft) NO 50 0 min 0,000 mm 0,0 UV-I 0 W/m 12,6 C 18,9 C 4,0 km/h (1 Bft) 0,00 %
25.08.2015 00:48 18,7 C 69 % 1012,9 hPa 0,0 l/m 4,0 km/h (1 Bft) W-SW 250 0 min 0,000 mm 0,0 UV-I 0 W/m 12,9 C 18,7 C 7,9 km/h (2 Bft) 0,00 %
25.08.2015 00:53 18,6 C 70 % 1013,1 hPa 0,0 l/m 13,0 km/h (3 Bft) W-NW 288 0 min 0,000 mm 0,0 UV-I 0 W/m 13,0 C 16,1 C 19,8 km/h (3 Bft) 0,00 %
25.08.2015 00:58 18,4 C 70 % 1013,2 hPa 0,0 l/m 5,4 km/h (1 Bft) SW 214 0 min 0,000 mm 0,0 UV-I 0 W/m 12,8 C 18,4 C 7,9 km/h (2 Bft) 0,00 %
25.08.2015 01:03 18,2 C 70 % 1013,1 hPa 0,0 l/m 0,7 km/h (0 Bft) N-NW 328 0 min 0,000 mm 0,0 UV-I 0 W/m 12,6 C 18,2 C 4,0 km/h (1 Bft) 0,00 %
25.08.2015 01:08 18,0 C 71 % 1013,3 hPa 0,0 l/m 5,4 km/h (1 Bft) W-SW 256 0 min 0,000 mm 0,0 UV-I 0 W/m 12,7 C 18,0 C 7,9 km/h (2 Bft) 0,00 %
25.08.2015 01:13 17,9 C 72 % 1013,5 hPa 0,0 l/m 13,0 km/h (3 Bft) W-NW 282 0 min 0,000 mm 0,0 UV-I 0 W/m 12,8 C 15,3 C 15,8 km/h (3 Bft) 0,00 %
25.08.2015 01:18 17,8 C 71 % 1013,6 hPa 0,0 l/m 2,2 km/h (1 Bft) W-SW 256 0 min 0,000 mm 0,0 UV-I 0 W/m 12,5 C 17,8 C 7,9 km/h (2 Bft) 0,00 %
25.08.2015 01:23 17,8 C 72 % 1013,6 hPa 0,0 l/m 0,0 km/h (0 Bft) O 83 0 min 0,000 mm 0,0 UV-I 0 W/m 12,7 C 17,8 C 0,0 km/h (0 Bft) 0,00 %
25.08.2015 01:28 17,8 C 72 % 1013,7 hPa 0,0 l/m 0,4 km/h (0 Bft) N 357 0 min 0,000 mm 0,0 UV-I 0 W/m 12,7 C 17,8 C 4,0 km/h (1 Bft) 0,00 %
25.08.2015 01:33 17,8 C 72 % 1013,9 hPa 0,0 l/m 10,4 km/h (2 Bft) NW 326 0 min 0,000 mm 0,0 UV-I 0 W/m 12,7 C 16,1 C 11,9 km/h (2 Bft) 0,00 %
25.08.2015 01:38 17,8 C 72 % 1013,8 hPa 0,0 l/m 0,0 km/h (0 Bft) O-NO 71 0 min 0,000 mm 0,0 UV-I 0 W/m 12,7 C 17,8 C 0,0 km/h (0 Bft) 0,00 %
25.08.2015 01:43 17,7 C 72 % 1013,9 hPa 0,0 l/m 0,4 km/h (0 Bft) O 97 0 min 0,000 mm 0,0 UV-I 0 W/m 12,6 C 17,7 C 4,0 km/h (1 Bft) 0,00 %
25.08.2015 01:48 17,7 C 73 % 1013,8 hPa 0,0 l/m 1,8 km/h (1 Bft) W-SW 252 0 min 0,000 mm 0,0 UV-I 0 W/m 12,8 C 17,7 C 4,0 km/h (1 Bft) 0,00 %
25.08.2015 01:53 17,7 C 73 % 1014,0 hPa 0,0 l/m 0,4 km/h (0 Bft) W 277 0 min 0,000 mm 0,0 UV-I 0 W/m 12,8 C 17,7 C 4,0 km/h (1 Bft) 0,00 %
25.08.2015 01:58 17,6 C 73 % 1014,0 hPa 0,0 l/m 0,4 km/h (0 Bft) W-SW 246 0 min 0,000 mm 0,0 UV-I 0 W/m 12,7 C 17,6 C 4,0 km/h (1 Bft) 0,00 %
25.08.2015 02:03 17,6 C 73 % 1014,1 hPa 0,0 l/m 0,7 km/h (0 Bft) N-NW 338 0 min 0,000 mm 0,0 UV-I 0 W/m 12,7 C 17,6 C 4,0 km/h (1 Bft) 0,00 %
25.08.2015 02:08 17,6 C 72 % 1014,1 hPa 0,0 l/m 10,4 km/h (2 Bft) W-SW 256 0 min 0,000 mm 0,0 UV-I 0 W/m 12,5 C 15,8 C 11,9 km/h (2 Bft) 0,00 %
25.08.2015 02:13 17,6 C 72 % 1014,1 hPa 0,0 l/m 2,2 km/h (1 Bft) W-NW 300 0 min 0,000 mm 0,0 UV-I 0 W/m 12,5 C 17,6 C 4,0 km/h (1 Bft) 0,00 %
25.08.2015 02:18 17,6 C 71 % 1014,5 hPa 0,0 l/m 2,2 km/h (1 Bft) NW 318 0 min 0,000 mm 0,0 UV-I 0 W/m 12,3 C 17,6 C 4,0 km/h (1 Bft) 0,00 %
25.08.2015 02:23 17,6 C 71 % 1014,3 hPa 0,0 l/m 5,4 km/h (1 Bft) W-SW 254 0 min 0,000 mm 0,0 UV-I 0 W/m 12,3 C 17,6 C 7,9 km/h (2 Bft) 0,00 %
25.08.2015 02:28 17,6 C 71 % 1014,6 hPa 0,0 l/m 15,8 km/h (3 Bft) W-NW 297 0 min 0,000 mm 0,0 UV-I 0 W/m 12,3 C 14,1 C 24,1 km/h (4 Bft) 0,00 %
25.08.2015 02:33 17,6 C 70 % 1014,5 hPa 0,0 l/m 0,0 km/h (0 Bft) N-NO 31 0 min 0,000 mm 0,0 UV-I 0 W/m 12,1 C 17,6 C 0,0 km/h (0 Bft) 0,00 %
25.08.2015 02:38 17,6 C 70 % 1014,5 hPa 0,0 l/m 8,3 km/h (2 Bft) W-NW 287 0 min 0,000 mm 0,0 UV-I 0 W/m 12,1 C 16,7 C 11,9 km/h (2 Bft) 0,00 %
25.08.2015 02:43 17,5 C 70 % 1014,5 hPa 0,0 l/m 0,0 km/h (0 Bft) N 354 0 min 0,000 mm 0,0 UV-I 0 W/m 12,0 C 17,5 C 0,0 km/h (0 Bft) 0,00 %
25.08.2015 02:48 17,5 C 71 % 1014,7 hPa 0,0 l/m 0,0 km/h (0 Bft) O-NO 57 0 min 0,000 mm 0,0 UV-I 0 W/m 12,2 C 17,5 C 0,0 km/h (0 Bft) 0,00 %
25.08.2015 02:53 17,5 C 69 % 1014,7 hPa 0,0 l/m 8,3 km/h (2 Bft) W-NW 287 0 min 0,000 mm 0,0 UV-I 0 W/m 11,7 C 16,6 C 11,9 km/h (2 Bft) 0,00 %
25.08.2015 02:58 17,5 C 67 % 1015,2 hPa 0,0 l/m 11,5 km/h (2 Bft) S 178 0 min 0,000 mm 0,0 UV-I 0 W/m 11,3 C 15,3 C 15,8 km/h (3 Bft) 0,00 %
25.08.2015 03:03 17,5 C 65 % 1015,2 hPa 0,0 l/m 10,8 km/h (2 Bft) W-SW 256 0 min 0,000 mm 0,0 UV-I 0 W/m 10,8 C 15,6 C 15,8 km/h (3 Bft) 0,00 %
25.08.2015 03:08 17,5 C 65 % 1015,2 hPa 0,0 l/m 1,8 km/h (1 Bft) W-NW 282 0 min 0,000 mm 0,0 UV-I 0 W/m 10,8 C 17,5 C 4,0 km/h (1 Bft) 0,00 %
25.08.2015 03:13 17,4 C 65 % 1015,2 hPa 0,0 l/m 1,4 km/h (1 Bft) W 275 0 min 0,000 mm 0,0 UV-I 0 W/m 10,8 C 17,4 C 4,0 km/h (1 Bft) 0,00 %
25.08.2015 03:18 17,4 C 65 % 1015,2 hPa 0,0 l/m 1,8 km/h (1 Bft) N 353 0 min 0,000 mm 0,0 UV-I 0 W/m 10,8 C 17,4 C 4,0 km/h (1 Bft) 0,00 %
25.08.2015 03:23 17,3 C 66 % 1015,2 hPa 0,0 l/m 4,0 km/h (1 Bft) W 269 0 min 0,000 mm 0,0 UV-I 0 W/m 10,9 C 17,3 C 7,9 km/h (2 Bft) 0,00 %
25.08.2015 03:28 17,3 C 66 % 1015,4 hPa 0,0 l/m 4,3 km/h (1 Bft) W 279 0 min 0,000 mm 0,0 UV-I 0 W/m 10,9 C 17,3 C 7,9 km/h (2 Bft) 0,00 %
25.08.2015 03:33 17,2 C 67 % 1015,4 hPa 0,0 l/m 0,0 km/h (0 Bft) W-SW 255 0 min 0,000 mm 0,0 UV-I 0 W/m 11,0 C 17,2 C 0,0 km/h (0 Bft) 0,00 %
25.08.2015 03:38 17,2 C 67 % 1015,4 hPa 0,0 l/m 0,0 km/h (0 Bft) O-NO 63 0 min 0,000 mm 0,0 UV-I 0 W/m 11,0 C 17,2 C 0,0 km/h (0 Bft) 0,00 %
25.08.2015 03:43 17,2 C 68 % 1015,6 hPa 0,0 l/m 0,7 km/h (0 Bft) NW 317 0 min 0,000 mm 0,0 UV-I 0 W/m 11,2 C 17,2 C 4,0 km/h (1 Bft) 0,00 %
25.08.2015 03:48 17,2 C 67 % 1015,6 hPa 0,0 l/m 14,8 km/h (3 Bft) W-SW 251 0 min 0,000 mm 0,0 UV-I 0 W/m 11,0 C 13,9 C 24,1 km/h (4 Bft) 0,00 %
25.08.2015 03:53 17,2 C 66 % 1015,9 hPa 0,0 l/m 6,5 km/h (2 Bft) N 352 0 min 0,000 mm 0,0 UV-I 0 W/m 10,8 C 17,2 C 7,9 km/h (2 Bft) 0,00 %
25.08.2015 03:58 17,3 C 65 % 1016,0 hPa 0,0 l/m 9,0 km/h (2 Bft) W 261 0 min 0,000 mm 0,0 UV-I 0 W/m 10,7 C 16,1 C 11,9 km/h (2 Bft) 0,00 %
25.08.2015 04:03 17,2 C 64 % 1016,1 hPa 0,0 l/m 15,5 km/h (3 Bft) W-SW 254 0 min 0,000 mm 0,0 UV-I 0 W/m 10,3 C 13,7 C 19,8 km/h (3 Bft) 0,00 %
25.08.2015 04:08 17,2 C 64 % 1016,1 hPa 0,0 l/m 7,2 km/h (2 Bft) NW 312 0 min 0,000 mm 0,0 UV-I 0 W/m 10,3 C 16,8 C 15,8 km/h (3 Bft) 0,00 %
25.08.2015 04:13 17,1 C 64 % 1016,1 hPa 0,0 l/m 14,4 km/h (3 Bft) SW 236 0 min 0,000 mm 0,0 UV-I 0 W/m 10,2 C 13,9 C 15,8 km/h (3 Bft) 0,00 %
25.08.2015 04:18 17,0 C 64 % 1016,2 hPa 0,0 l/m 4,0 km/h (1 Bft) W-SW 257 0 min 0,000 mm 0,0 UV-I 0 W/m 10,1 C 17,0 C 4,0 km/h (1 Bft) 0,00 %
25.08.2015 04:23 16,9 C 63 % 1016,3 hPa 0,0 l/m 5,4 km/h (1 Bft) N 350 0 min 0,000 mm 0,0 UV-I 0 W/m 9,8 C 16,9 C 7,9 km/h (2 Bft) 0,00 %
25.08.2015 04:28 16,8 C 63 % 1016,0 hPa 0,0 l/m 0,0 km/h (0 Bft) NW 321 0 min 0,000 mm 0,0 UV-I 0 W/m 9,7 C 16,8 C 0,0 km/h (0 Bft) 0,00 %
25.08.2015 04:33 16,7 C 62 % 1016,3 hPa 0,0 l/m 0,0 km/h (0 Bft) NO 41 0 min 0,000 mm 0,0 UV-I 0 W/m 9,4 C 16,7 C 0,0 km/h (0 Bft) 0,00 %
25.08.2015 04:38 16,7 C 63 % 1016,2 hPa 0,0 l/m 6,5 km/h (2 Bft) W 261 0 min 0,000 mm 0,0 UV-I 0 W/m 9,6 C 16,7 C 11,9 km/h (2 Bft) 0,00 %
25.08.2015 04:43 16,6 C 63 % 1016,3 hPa 0,0 l/m 2,9 km/h (1 Bft) N 359 0 min 0,000 mm 0,0 UV-I 0 W/m 9,5 C 16,6 C 4,0 km/h (1 Bft) 0,00 %
25.08.2015 04:48 16,5 C 63 % 1016,3 hPa 0,0 l/m 4,7 km/h (1 Bft) W-SW 256 0 min 0,000 mm 0,0 UV-I 0 W/m 9,4 C 16,5 C 7,9 km/h (2 Bft) 0,00 %
25.08.2015 04:53 16,5 C 63 % 1016,4 hPa 0,0 l/m 2,9 km/h (1 Bft) N-NW 339 0 min 0,000 mm 0,0 UV-I 0 W/m 9,4 C 16,5 C 7,9 km/h (2 Bft) 0,00 %
25.08.2015 04:58 16,4 C 64 % 1016,2 hPa 0,0 l/m 1,4 km/h (1 Bft) N-NO 33 0 min 0,000 mm 0,0 UV-I 0 W/m 9,6 C 16,4 C 4,0 km/h (1 Bft) 0,00 %
25.08.2015 05:03 16,4 C 64 % 1016,6 hPa 0,0 l/m 3,2 km/h (1 Bft) N-NW 347 0 min 0,000 mm 0,0 UV-I 0 W/m 9,6 C 16,4 C 7,9 km/h (2 Bft) 0,00 %
25.08.2015 05:08 16,3 C 64 % 1016,6 hPa 0,0 l/m 2,9 km/h (1 Bft) W-SW 255 0 min 0,000 mm 0,0 UV-I 0 W/m 9,5 C 16,3 C 4,0 km/h (1 Bft) 0,00 %
25.08.2015 05:13 16,3 C 64 % 1016,6 hPa 0,0 l/m 4,3 km/h (1 Bft) N-NW 347 0 min 0,000 mm 0,0 UV-I 0 W/m 9,5 C 16,3 C 7,9 km/h (2 Bft) 0,00 %
25.08.2015 05:18 16,3 C 64 % 1016,6 hPa 0,0 l/m 0,7 km/h (0 Bft) NO 52 0 min 0,000 mm 0,0 UV-I 0 W/m 9,5 C 16,3 C 4,0 km/h (1 Bft) 0,00 %
25.08.2015 05:23 16,3 C 64 % 1016,8 hPa 0,0 l/m 1,4 km/h (1 Bft) N-NW 338 0 min 0,000 mm 0,0 UV-I 0 W/m 9,5 C 16,3 C 7,9 km/h (2 Bft) 0,00 %
25.08.2015 05:28 16,2 C 64 % 1016,9 hPa 0,0 l/m 4,0 km/h (1 Bft) W-NW 303 0 min 0,000 mm 0,0 UV-I 0 W/m 9,4 C 16,2 C 7,9 km/h (2 Bft) 0,00 %
25.08.2015 05:33 16,2 C 63 % 1016,9 hPa 0,0 l/m 7,9 km/h (2 Bft) W-SW 256 0 min 0,000 mm 0,0 UV-I 0 W/m 9,1 C 15,4 C 11,9 km/h (2 Bft) 0,00 %
25.08.2015 05:38 16,1 C 63 % 1016,8 hPa 0,0 l/m 4,0 km/h (1 Bft) N 355 0 min 0,000 mm 0,0 UV-I 0 W/m 9,1 C 16,1 C 7,9 km/h (2 Bft) 0,00 %
25.08.2015 05:43 16,1 C 63 % 1017,1 hPa 0,0 l/m 4,0 km/h (1 Bft) N-NO 14 0 min 0,000 mm 0,0 UV-I 0 W/m 9,1 C 16,1 C 7,9 km/h (2 Bft) 0,00 %
25.08.2015 05:48 16,0 C 66 % 1017,0 hPa 0,0 l/m 1,8 km/h (1 Bft) NW 322 0 min 0,000 mm 0,0 UV-I 0 W/m 9,7 C 16,0 C 4,0 km/h (1 Bft) 0,00 %
25.08.2015 05:53 15,8 C 70 % 1017,2 hPa 0,0 l/m 8,3 km/h (2 Bft) W-SW 252 0 min 0,000 mm 0,0 UV-I 0 W/m 10,3 C 14,8 C 15,8 km/h (3 Bft) 0,00 %
25.08.2015 05:58 15,4 C 73 % 1017,3 hPa 0,0 l/m 0,0 km/h (0 Bft) O 89 0 min 0,000 mm 0,0 UV-I 0 W/m 10,6 C 15,4 C 0,0 km/h (0 Bft) 0,00 %
25.08.2015 06:03 15,0 C 77 % 1017,5 hPa 0,0 l/m 0,7 km/h (0 Bft) W-SW 255 0 min 0,000 mm 0,0 UV-I 0 W/m 11,0 C 15,0 C 4,0 km/h (1 Bft) 0,00 %
25.08.2015 06:08 14,7 C 79 % 1017,6 hPa 0,0 l/m 0,4 km/h (0 Bft) N-NO 25 0 min 0,000 mm 0,0 UV-I 0 W/m 11,1 C 14,7 C 4,0 km/h (1 Bft) 0,00 %
25.08.2015 06:13 14,4 C 80 % 1017,8 hPa 0,0 l/m 0,0 km/h (0 Bft) N 354 0 min 0,000 mm 0,0 UV-I 0 W/m 11,0 C 14,4 C 0,0 km/h (0 Bft) 0,00 %
25.08.2015 06:18 14,3 C 81 % 1017,7 hPa 0,0 l/m 4,7 km/h (1 Bft) W-NW 286 0 min 0,000 mm 0,0 UV-I 0 W/m 11,1 C 14,3 C 7,9 km/h (2 Bft) 0,00 %
25.08.2015 06:23 14,1 C 82 % 1017,8 hPa 0,0 l/m 0,0 km/h (0 Bft) N-NO 30 0 min 0,000 mm 0,0 UV-I 0 W/m 11,1 C 14,1 C 0,0 km/h (0 Bft) 0,00 %
25.08.2015 06:28 14,0 C 82 % 1017,9 hPa 0,0 l/m 0,0 km/h (0 Bft) NO 52 0 min 0,000 mm 0,0 UV-I 0 W/m 11,0 C 14,0 C 0,0 km/h (0 Bft) 0,00 %
25.08.2015 06:33 14,0 C 83 % 1018,0 hPa 0,0 l/m 0,0 km/h (0 Bft) N-NO 22 0 min 0,000 mm 0,0 UV-I 0 W/m 11,2 C 14,0 C 0,0 km/h (0 Bft) 0,00 %
25.08.2015 06:38 13,9 C 84 % 1018,1 hPa 0,0 l/m 0,0 km/h (0 Bft) NO 48 0 min 0,000 mm 0,0 UV-I 0 W/m 11,2 C 13,9 C 0,0 km/h (0 Bft) 0,00 %
25.08.2015 06:43 13,9 C 85 % 1018,1 hPa 0,0 l/m 0,0 km/h (0 Bft) NO 37 0 min 0,000 mm 0,0 UV-I 5 W/m 11,4 C 13,9 C 0,0 km/h (0 Bft) 0,00 %
25.08.2015 06:48 13,8 C 85 % 1018,2 hPa 0,0 l/m 0,0 km/h (0 Bft) N 1 0 min 0,000 mm 0,0 UV-I 10 W/m 11,3 C 13,8 C 0,0 km/h (0 Bft) 0,00 %
25.08.2015 06:53 13,8 C 85 % 1018,2 hPa 0,0 l/m 0,0 km/h (0 Bft) NO 50 0 min 0,000 mm 0,0 UV-I 11 W/m 11,3 C 13,8 C 0,0 km/h (0 Bft) 0,00 %
25.08.2015 06:58 13,8 C 85 % 1018,3 hPa 0,0 l/m 0,0 km/h (0 Bft) NO 43 0 min 0,000 mm 0,0 UV-I 12 W/m 11,3 C 13,8 C 0,0 km/h (0 Bft) 0,00 %
25.08.2015 07:03 13,8 C 85 % 1018,5 hPa 0,0 l/m 0,0 km/h (0 Bft) NO 36 0 min 0,000 mm 0,0 UV-I 18 W/m 11,3 C 13,8 C 0,0 km/h (0 Bft) 0,00 %
25.08.2015 07:08 13,9 C 86 % 1018,6 hPa 0,0 l/m 0,0 km/h (0 Bft) NO 43 0 min 0,000 mm 0,0 UV-I 23 W/m 11,6 C 13,9 C 0,0 km/h (0 Bft) 0,00 %
25.08.2015 07:13 13,9 C 86 % 1018,7 hPa 0,0 l/m 0,0 km/h (0 Bft) NO 40 0 min 0,000 mm 0,0 UV-I 22 W/m 11,6 C 13,9 C 0,0 km/h (0 Bft) 0,00 %
25.08.2015 07:18 13,9 C 86 % 1018,7 hPa 0,0 l/m 0,0 km/h (0 Bft) NO 41 0 min 0,000 mm 0,0 UV-I 23 W/m 11,6 C 13,9 C 0,0 km/h (0 Bft) 0,00 %
25.08.2015 07:23 13,9 C 85 % 1018,7 hPa 0,0 l/m 0,0 km/h (0 Bft) NO 54 0 min 0,000 mm 0,0 UV-I 33 W/m 11,4 C 13,9 C 0,0 km/h (0 Bft) 0,00 %
25.08.2015 07:28 13,9 C 85 % 1018,8 hPa 0,0 l/m 0,0 km/h (0 Bft) NO 48 0 min 0,000 mm 0,0 UV-I 32 W/m 11,4 C 13,9 C 0,0 km/h (0 Bft) 0,00 %
25.08.2015 07:33 14,0 C 85 % 1018,7 hPa 0,0 l/m 0,0 km/h (0 Bft) NO 34 0 min 0,000 mm 0,0 UV-I 36 W/m 11,5 C 14,0 C 0,0 km/h (0 Bft) 0,00 %
25.08.2015 07:38 14,0 C 85 % 1018,7 hPa 0,0 l/m 0,0 km/h (0 Bft) N-NO 25 0 min 0,000 mm 0,0 UV-I 35 W/m 11,5 C 14,0 C 0,0 km/h (0 Bft) 0,00 %
25.08.2015 07:43 14,0 C 86 % 1018,8 hPa 0,3 l/m 0,0 km/h (0 Bft) NO 45 0 min 0,000 mm 0,0 UV-I 45 W/m 11,7 C 14,0 C 0,0 km/h (0 Bft) 0,00 %
25.08.2015 07:48 14,0 C 87 % 1018,7 hPa 0,0 l/m 0,0 km/h (0 Bft) NO 41 0 min 0,000 mm 0,0 UV-I 48 W/m 11,9 C 14,0 C 0,0 km/h (0 Bft) 0,00 %
25.08.2015 07:53 14,0 C 87 % 1018,7 hPa 0,0 l/m 0,0 km/h (0 Bft) NO 39 0 min 0,000 mm 0,0 UV-I 40 W/m 11,9 C 14,0 C 0,0 km/h (0 Bft) 0,00 %
25.08.2015 07:58 14,0 C 88 % 1018,9 hPa 0,0 l/m 0,0 km/h (0 Bft) N 11 0 min 0,000 mm 0,0 UV-I 48 W/m 12,0 C 14,0 C 0,0 km/h (0 Bft) 0,00 %
25.08.2015 08:03 13,9 C 87 % 1019,0 hPa 0,0 l/m 0,0 km/h (0 Bft) NO 34 0 min 0,000 mm 0,0 UV-I 64 W/m 11,8 C 13,9 C 0,0 km/h (0 Bft) 0,00 %
25.08.2015 08:08 14,0 C 88 % 1019,1 hPa 0,0 l/m 0,0 km/h (0 Bft) N 3 0 min 0,000 mm 0,0 UV-I 72 W/m 12,0 C 14,0 C 0,0 km/h (0 Bft) 0,00 %
25.08.2015 08:13 14,1 C 87 % 1019,2 hPa 0,0 l/m 0,0 km/h (0 Bft) NO 41 0 min 0,000 mm 0,0 UV-I 69 W/m 12,0 C 14,1 C 0,0 km/h (0 Bft) 0,00 %
25.08.2015 08:18 14,2 C 87 % 1019,2 hPa 0,0 l/m 0,0 km/h (0 Bft) N-NO 30 0 min 0,000 mm 0,0 UV-I 85 W/m 12,1 C 14,2 C 0,0 km/h (0 Bft) 0,00 %
25.08.2015 08:23 14,2 C 87 % 1019,1 hPa 0,0 l/m 0,0 km/h (0 Bft) NO 47 0 min 0,000 mm 1,0 UV-I 93 W/m 12,1 C 14,2 C 0,0 km/h (0 Bft) 0,00 %
25.08.2015 08:28 14,3 C 87 % 1019,1 hPa 0,0 l/m 0,0 km/h (0 Bft) NO 38 0 min 0,000 mm 1,0 UV-I 95 W/m 12,2 C 14,3 C 0,0 km/h (0 Bft) 0,00 %
25.08.2015 08:33 14,4 C 86 % 1019,3 hPa 0,0 l/m 0,0 km/h (0 Bft) N-NO 25 0 min 0,000 mm 0,0 UV-I 89 W/m 12,1 C 14,4 C 0,0 km/h (0 Bft) 0,00 %
25.08.2015 08:38 14,5 C 86 % 1019,4 hPa 0,0 l/m 0,0 km/h (0 Bft) NO 55 0 min 0,000 mm 1,0 UV-I 106 W/m 12,2 C 14,5 C 0,0 km/h (0 Bft) 0,00 %
25.08.2015 08:43 14,6 C 85 % 1019,5 hPa 0,0 l/m 0,0 km/h (0 Bft) NO 36 0 min 0,000 mm 1,0 UV-I 124 W/m 12,1 C 14,6 C 0,0 km/h (0 Bft) 0,00 %
25.08.2015 08:48 14,7 C 85 % 1019,6 hPa 0,0 l/m 0,0 km/h (0 Bft) NO 48 0 min 0,000 mm 1,0 UV-I 130 W/m 12,2 C 14,7 C 0,0 km/h (0 Bft) 0,00 %
25.08.2015 08:53 14,8 C 83 % 1019,4 hPa 0,0 l/m 0,0 km/h (0 Bft) N-NO 22 0 min 0,000 mm 1,0 UV-I 155 W/m 11,9 C 14,8 C 0,0 km/h (0 Bft) 0,00 %
25.08.2015 08:58 15,0 C 82 % 1019,5 hPa 0,0 l/m 0,0 km/h (0 Bft) NO 43 0 min 0,000 mm 1,0 UV-I 194 W/m 12,0 C 15,0 C 0,0 km/h (0 Bft) 0,00 %
25.08.2015 09:03 15,2 C 81 % 1019,5 hPa 0,0 l/m 0,0 km/h (0 Bft) NO 38 0 min 0,000 mm 1,0 UV-I 195 W/m 12,0 C 15,2 C 0,0 km/h (0 Bft) 0,00 %
25.08.2015 09:09 15,4 C 80 % 1019,5 hPa 0,0 l/m 0,0 km/h (0 Bft) NO 36 0 min 0,000 mm 1,0 UV-I 164 W/m 12,0 C 15,4 C 0,0 km/h (0 Bft) 0,00 %
25.08.2015 09:14 15,6 C 79 % 1019,4 hPa 0,0 l/m 0,0 km/h (0 Bft) NO 44 0 min 0,000 mm 1,0 UV-I 197 W/m 12,0 C 15,6 C 0,0 km/h (0 Bft) 0,00 %
25.08.2015 09:19 15,8 C 78 % 1019,5 hPa 0,0 l/m 0,0 km/h (0 Bft) N-NW 348 0 min 0,000 mm 1,0 UV-I 198 W/m 12,0 C 15,8 C 0,0 km/h (0 Bft) 0,00 %
25.08.2015 09:24 16,0 C 77 % 1019,7 hPa 0,0 l/m 0,0 km/h (0 Bft) NO 52 0 min 0,000 mm 1,0 UV-I 238 W/m 12,0 C 16,0 C 0,0 km/h (0 Bft) 0,00 %
25.08.2015 09:29 16,3 C 75 % 1019,9 hPa 0,0 l/m 0,0 km/h (0 Bft) N 350 0 min 0,000 mm 1,0 UV-I 161 W/m 11,9 C 16,3 C 0,0 km/h (0 Bft) 0,00 %
25.08.2015 09:34 16,6 C 74 % 1019,5 hPa 0,0 l/m 0,0 km/h (0 Bft) O-NO 64 0 min 0,000 mm 1,0 UV-I 180 W/m 11,9 C 16,6 C 0,0 km/h (0 Bft) 0,00 %
25.08.2015 09:39 16,8 C 73 % 1019,8 hPa 0,0 l/m 2,2 km/h (1 Bft) W-SW 257 0 min 0,000 mm 1,0 UV-I 197 W/m 11,9 C 16,8 C 4,0 km/h (1 Bft) 0,00 %
25.08.2015 09:44 16,8 C 71 % 1019,8 hPa 0,0 l/m 0,7 km/h (0 Bft) W 273 0 min 0,000 mm 1,0 UV-I 219 W/m 11,5 C 16,8 C 4,0 km/h (1 Bft) 0,00 %
25.08.2015 09:49 16,8 C 70 % 1019,8 hPa 0,0 l/m 0,7 km/h (0 Bft) N-NW 343 0 min 0,000 mm 1,0 UV-I 215 W/m 11,3 C 16,8 C 4,0 km/h (1 Bft) 0,00 %
25.08.2015 09:54 17,0 C 71 % 1020,1 hPa 0,0 l/m 0,0 km/h (0 Bft) NO 44 0 min 0,000 mm 1,0 UV-I 218 W/m 11,7 C 17,0 C 0,0 km/h (0 Bft) 0,00 %
25.08.2015 09:59 17,1 C 68 % 1020,1 hPa 0,0 l/m 0,4 km/h (0 Bft) NW 311 0 min 0,000 mm 1,0 UV-I 187 W/m 11,1 C 17,1 C 4,0 km/h (1 Bft) 0,00 %
25.08.2015 10:04 17,3 C 66 % 1019,7 hPa 0,0 l/m 0,4 km/h (0 Bft) W-NW 297 0 min 0,000 mm 1,0 UV-I 220 W/m 10,9 C 17,3 C 4,0 km/h (1 Bft) 0,00 %
25.08.2015 10:09 17,3 C 67 % 1020,0 hPa 0,0 l/m 4,7 km/h (1 Bft) W-NW 292 0 min 0,000 mm 1,0 UV-I 286 W/m 11,1 C 17,3 C 7,9 km/h (2 Bft) 0,00 %
25.08.2015 10:14 17,5 C 66 % 1020,0 hPa 0,0 l/m 0,0 km/h (0 Bft) NO 45 0 min 0,000 mm 1,0 UV-I 290 W/m 11,1 C 17,5 C 0,0 km/h (0 Bft) 0,00 %
25.08.2015 10:19 17,7 C 63 % 1019,9 hPa 0,0 l/m 0,4 km/h (0 Bft) W-SW 256 0 min 0,000 mm 1,0 UV-I 320 W/m 10,6 C 17,7 C 4,0 km/h (1 Bft) 0,00 %
25.08.2015 10:24 18,1 C 62 % 1019,7 hPa 0,0 l/m 1,8 km/h (1 Bft) O-NO 59 0 min 0,000 mm 2,0 UV-I 338 W/m 10,7 C 18,1 C 4,0 km/h (1 Bft) 0,00 %
25.08.2015 10:29 18,5 C 60 % 1019,7 hPa 0,0 l/m 1,4 km/h (1 Bft) W-SW 258 0 min 0,000 mm 1,0 UV-I 324 W/m 10,6 C 18,5 C 7,9 km/h (2 Bft) 0,00 %
25.08.2015 10:34 18,8 C 58 % 1020,0 hPa 0,0 l/m 0,0 km/h (0 Bft) N-NO 29 0 min 0,000 mm 1,0 UV-I 322 W/m 10,4 C 18,8 C 0,0 km/h (0 Bft) 0,00 %
25.08.2015 10:39 18,9 C 54 % 1019,7 hPa 0,0 l/m 5,8 km/h (2 Bft) W 268 5 min 0,000 mm 2,0 UV-I 409 W/m 9,4 C 18,9 C 7,9 km/h (2 Bft) 0,00 %
25.08.2015 10:44 19,0 C 52 % 1019,7 hPa 0,0 l/m 9,4 km/h (2 Bft) W-SW 255 0 min 0,000 mm 1,0 UV-I 295 W/m 8,9 C 17,8 C 15,8 km/h (3 Bft) 0,00 %
25.08.2015 10:49 19,0 C 50 % 1019,9 hPa 0,0 l/m 6,8 km/h (2 Bft) NW 326 0 min 0,000 mm 1,0 UV-I 257 W/m 8,3 C 18,8 C 7,9 km/h (2 Bft) 0,00 %
25.08.2015 10:54 18,8 C 51 % 1020,0 hPa 0,0 l/m 4,3 km/h (1 Bft) W 273 0 min 0,000 mm 1,0 UV-I 246 W/m 8,4 C 18,8 C 7,9 km/h (2 Bft) 0,00 %
25.08.2015 10:59 18,4 C 52 % 1020,1 hPa 0,0 l/m 0,7 km/h (0 Bft) N-NO 26 0 min 0,000 mm 1,0 UV-I 242 W/m 8,4 C 18,4 C 4,0 km/h (1 Bft) 0,00 %
25.08.2015 11:04 18,2 C 52 % 1019,8 hPa 0,0 l/m 5,4 km/h (1 Bft) W-NW 284 0 min 0,000 mm 1,0 UV-I 317 W/m 8,2 C 18,2 C 7,9 km/h (2 Bft) 0,00 %
25.08.2015 11:09 18,3 C 53 % 1019,9 hPa 0,0 l/m 5,8 km/h (2 Bft) W-SW 256 0 min 0,000 mm 1,0 UV-I 333 W/m 8,6 C 18,3 C 7,9 km/h (2 Bft) 0,00 %
25.08.2015 11:14 18,7 C 51 % 1020,0 hPa 0,0 l/m 1,8 km/h (1 Bft) N-NW 345 5 min 0,000 mm 2,0 UV-I 410 W/m 8,4 C 18,7 C 4,0 km/h (1 Bft) 0,00 %
25.08.2015 11:19 19,1 C 50 % 1019,9 hPa 0,0 l/m 2,2 km/h (1 Bft) N-NW 338 0 min 0,000 mm 2,0 UV-I 380 W/m 8,4 C 19,1 C 4,0 km/h (1 Bft) 0,00 %
25.08.2015 11:24 19,4 C 49 % 1020,0 hPa 0,0 l/m 2,9 km/h (1 Bft) N-NW 346 0 min 0,000 mm 2,0 UV-I 363 W/m 8,4 C 19,4 C 7,9 km/h (2 Bft) 0,00 %
25.08.2015 11:29 19,5 C 48 % 1020,0 hPa 0,0 l/m 9,0 km/h (2 Bft) W-SW 256 0 min 0,000 mm 2,0 UV-I 342 W/m 8,2 C 18,4 C 11,9 km/h (2 Bft) 0,00 %
25.08.2015 11:34 19,4 C 49 % 1019,8 hPa 0,0 l/m 2,2 km/h (1 Bft) N-NO 24 0 min 0,000 mm 2,0 UV-I 379 W/m 8,4 C 19,4 C 4,0 km/h (1 Bft) 0,00 %
25.08.2015 11:39 19,6 C 49 % 1020,1 hPa 0,0 l/m 2,9 km/h (1 Bft) NO 46 0 min 0,000 mm 2,0 UV-I 359 W/m 8,6 C 19,6 C 7,9 km/h (2 Bft) 0,00 %
25.08.2015 11:44 19,9 C 48 % 1020,0 hPa 0,0 l/m 0,0 km/h (0 Bft) N 353 5 min 0,000 mm 2,0 UV-I 423 W/m 8,6 C 19,9 C 0,0 km/h (0 Bft) 0,00 %
25.08.2015 11:49 20,0 C 48 % 1019,5 hPa 0,0 l/m 1,4 km/h (1 Bft) NW 312 5 min 0,000 mm 3,0 UV-I 819 W/m 8,7 C 20,0 C 4,0 km/h (1 Bft) 0,00 %
25.08.2015 11:54 20,4 C 39 % 1019,9 hPa 0,0 l/m 1,4 km/h (1 Bft) NO 36 5 min 0,000 mm 2,0 UV-I 524 W/m 6,0 C 20,4 C 4,0 km/h (1 Bft) 0,00 %
25.08.2015 11:59 21,1 C 37 % 1019,9 hPa 0,0 l/m 0,4 km/h (0 Bft) O-NO 63 5 min 0,000 mm 2,0 UV-I 500 W/m 5,8 C 21,1 C 4,0 km/h (1 Bft) 0,00 %
25.08.2015 12:04 21,3 C 36 % 1020,0 hPa 0,0 l/m 3,2 km/h (1 Bft) N-NW 345 5 min 0,000 mm 4,0 UV-I 1064 W/m 5,6 C 21,3 C 7,9 km/h (2 Bft) 0,00 %
25.08.2015 12:09 21,6 C 36 % 1020,0 hPa 0,0 l/m 0,4 km/h (0 Bft) N 9 0 min 0,000 mm 2,0 UV-I 368 W/m 5,9 C 21,6 C 4,0 km/h (1 Bft) 0,00 %
25.08.2015 12:14 21,7 C 30 % 1020,0 hPa 0,0 l/m 0,0 km/h (0 Bft) N-NO 29 0 min 0,000 mm 2,0 UV-I 331 W/m 3,4 C 21,7 C 0,0 km/h (0 Bft) 0,00 %
25.08.2015 12:19 21,3 C 34 % 1020,0 hPa 0,0 l/m 2,9 km/h (1 Bft) N-NW 330 0 min 0,000 mm 1,0 UV-I 308 W/m 4,8 C 21,3 C 4,0 km/h (1 Bft) 0,00 %
25.08.2015 12:24 20,7 C 35 % 1020,0 hPa 0,0 l/m 0,0 km/h (0 Bft) NO 47 0 min 0,000 mm 1,0 UV-I 304 W/m 4,7 C 20,7 C 0,0 km/h (0 Bft) 0,00 %
25.08.2015 12:29 20,4 C 34 % 1020,0 hPa 0,0 l/m 0,7 km/h (0 Bft) N 353 0 min 0,000 mm 1,0 UV-I 290 W/m 4,0 C 20,4 C 4,0 km/h (1 Bft) 0,00 %
25.08.2015 12:34 20,4 C 34 % 1020,1 hPa 0,0 l/m 0,4 km/h (0 Bft) W-NW 299 0 min 0,000 mm 1,0 UV-I 293 W/m 4,0 C 20,4 C 4,0 km/h (1 Bft) 0,00 %
25.08.2015 12:39 20,2 C 33 % 1020,1 hPa 0,0 l/m 0,0 km/h (0 Bft) N-NO 29 0 min 0,000 mm 1,0 UV-I 266 W/m 3,4 C 20,2 C 0,0 km/h (0 Bft) 0,00 %
25.08.2015 12:44 19,9 C 35 % 1020,3 hPa 0,0 l/m 3,2 km/h (1 Bft) S-SW 202 0 min 0,000 mm 1,0 UV-I 274 W/m 4,0 C 19,9 C 4,0 km/h (1 Bft) 0,00 %
25.08.2015 12:49 19,6 C 35 % 1020,1 hPa 0,0 l/m 0,0 km/h (0 Bft) NO 55 0 min 0,000 mm 1,0 UV-I 283 W/m 3,7 C 19,6 C 0,0 km/h (0 Bft) 0,00 %
25.08.2015 12:54 19,6 C 35 % 1020,0 hPa 0,0 l/m 0,4 km/h (0 Bft) N-NW 344 0 min 0,000 mm 1,0 UV-I 304 W/m 3,7 C 19,6 C 4,0 km/h (1 Bft) 0,00 %
25.08.2015 12:59 19,8 C 34 % 1020,1 hPa 0,0 l/m 5,4 km/h (1 Bft) W-SW 247 0 min 0,000 mm 1,0 UV-I 319 W/m 3,5 C 19,8 C 11,9 km/h (2 Bft) 0,00 %
25.08.2015 13:04 19,7 C 35 % 1020,2 hPa 0,0 l/m 2,9 km/h (1 Bft) N 355 0 min 0,000 mm 2,0 UV-I 336 W/m 3,8 C 19,7 C 7,9 km/h (2 Bft) 0,00 %
25.08.2015 13:09 19,7 C 35 % 1020,1 hPa 0,0 l/m 1,8 km/h (1 Bft) W-SW 256 0 min 0,000 mm 2,0 UV-I 402 W/m 3,8 C 19,7 C 4,0 km/h (1 Bft) 0,00 %
25.08.2015 13:14 20,0 C 34 % 1020,0 hPa 0,0 l/m 4,3 km/h (1 Bft) W-NW 303 5 min 0,000 mm 2,0 UV-I 457 W/m 3,7 C 20,0 C 7,9 km/h (2 Bft) 0,00 %
25.08.2015 13:19 20,4 C 34 % 1020,1 hPa 0,0 l/m 1,8 km/h (1 Bft) NW 321 0 min 0,000 mm 2,0 UV-I 396 W/m 4,0 C 20,4 C 4,0 km/h (1 Bft) 0,00 %
25.08.2015 13:24 20,5 C 32 % 1020,1 hPa 0,0 l/m 9,0 km/h (2 Bft) W-NW 299 0 min 0,000 mm 2,0 UV-I 371 W/m 3,2 C 19,5 C 11,9 km/h (2 Bft) 0,00 %
25.08.2015 13:29 20,6 C 31 % 1020,3 hPa 0,0 l/m 4,0 km/h (1 Bft) W-SW 251 0 min 0,000 mm 2,0 UV-I 324 W/m 2,9 C 20,6 C 7,9 km/h (2 Bft) 0,00 %
25.08.2015 13:34 20,5 C 32 % 1020,3 hPa 0,0 l/m 0,4 km/h (0 Bft) O-SO 123 0 min 0,000 mm 1,0 UV-I 310 W/m 3,2 C 20,5 C 4,0 km/h (1 Bft) 0,00 %
25.08.2015 13:39 20,4 C 33 % 1020,2 hPa 0,0 l/m 0,4 km/h (0 Bft) NO 41 0 min 0,000 mm 2,0 UV-I 395 W/m 3,6 C 20,4 C 4,0 km/h (1 Bft) 0,00 %
25.08.2015 13:44 20,3 C 32 % 1020,2 hPa 0,0 l/m 5,4 km/h (1 Bft) SW 215 5 min 0,000 mm 2,0 UV-I 439 W/m 3,1 C 20,3 C 7,9 km/h (2 Bft) 0,00 %
25.08.2015 13:49 20,3 C 33 % 1020,3 hPa 0,0 l/m 4,0 km/h (1 Bft) SW 223 5 min 0,000 mm 3,0 UV-I 715 W/m 3,5 C 20,3 C 7,9 km/h (2 Bft) 0,00 %
25.08.2015 13:54 20,6 C 32 % 1020,3 hPa 0,0 l/m 5,8 km/h (2 Bft) W-SW 256 5 min 0,000 mm 3,0 UV-I 814 W/m 3,3 C 20,6 C 7,9 km/h (2 Bft) 0,00 %
25.08.2015 13:59 21,0 C 30 % 1020,3 hPa 0,0 l/m 0,0 km/h (0 Bft) N 5 0 min 0,000 mm 2,0 UV-I 400 W/m 2,8 C 21,0 C 0,0 km/h (0 Bft) 0,00 %
25.08.2015 14:04 21,4 C 31 % 1020,3 hPa 0,0 l/m 0,0 km/h (0 Bft) SW 225 5 min 0,000 mm 2,0 UV-I 476 W/m 3,6 C 21,4 C 0,0 km/h (0 Bft) 0,00 %
25.08.2015 14:09 21,4 C 30 % 1020,3 hPa 0,0 l/m 0,4 km/h (0 Bft) O-NO 74 0 min 0,000 mm 2,0 UV-I 384 W/m 3,1 C 21,4 C 4,0 km/h (1 Bft) 0,00 %
25.08.2015 14:14 21,2 C 32 % 1020,3 hPa 0,0 l/m 0,0 km/h (0 Bft) N-NW 327 0 min 0,000 mm 2,0 UV-I 397 W/m 3,8 C 21,2 C 0,0 km/h (0 Bft) 0,00 %
25.08.2015 14:19 21,4 C 30 % 1020,3 hPa 0,0 l/m 6,5 km/h (2 Bft) SW 230 5 min 0,000 mm 2,0 UV-I 436 W/m 3,1 C 21,4 C 7,9 km/h (2 Bft) 0,00 %
25.08.2015 14:24 21,4 C 30 % 1020,1 hPa 0,0 l/m 0,0 km/h (0 Bft) S 186 0 min 0,000 mm 2,0 UV-I 411 W/m 3,1 C 21,4 C 0,0 km/h (0 Bft) 0,00 %
25.08.2015 14:29 21,4 C 31 % 1020,1 hPa 0,0 l/m 0,0 km/h (0 Bft) N 353 0 min 0,000 mm 2,0 UV-I 388 W/m 3,6 C 21,4 C 0,0 km/h (0 Bft) 0,00 %
25.08.2015 14:34 21,6 C 31 % 1020,1 hPa 0,0 l/m 0,0 km/h (0 Bft) N 351 0 min 0,000 mm 2,0 UV-I 399 W/m 3,7 C 21,6 C 0,0 km/h (0 Bft) 0,00 %
25.08.2015 14:39 21,9 C 32 % 1020,1 hPa 0,0 l/m 0,4 km/h (0 Bft) N-NW 333 5 min 0,000 mm 2,0 UV-I 442 W/m 4,5 C 21,9 C 4,0 km/h (1 Bft) 0,00 %
25.08.2015 14:44 22,1 C 30 % 1019,9 hPa 0,0 l/m 0,0 km/h (0 Bft) N 0 0 min 0,000 mm 2,0 UV-I 395 W/m 3,7 C 22,1 C 0,0 km/h (0 Bft) 0,00 %
25.08.2015 14:49 21,9 C 29 % 1019,8 hPa 0,0 l/m 0,7 km/h (0 Bft) N-NW 338 0 min 0,000 mm 2,0 UV-I 358 W/m 3,1 C 21,9 C 4,0 km/h (1 Bft) 0,00 %
25.08.2015 14:54 21,4 C 31 % 1019,9 hPa 0,0 l/m 4,0 km/h (1 Bft) N-NW 329 0 min 0,000 mm 1,0 UV-I 277 W/m 3,6 C 21,4 C 4,0 km/h (1 Bft) 0,00 %
25.08.2015 14:59 21,2 C 31 % 1019,8 hPa 0,0 l/m 0,0 km/h (0 Bft) N-NO 28 0 min 0,000 mm 1,0 UV-I 246 W/m 3,4 C 21,2 C 0,0 km/h (0 Bft) 0,00 %
25.08.2015 15:04 21,0 C 31 % 1020,0 hPa 0,0 l/m 0,0 km/h (0 Bft) S-SO 148 0 min 0,000 mm 1,0 UV-I 220 W/m 3,2 C 21,0 C 0,0 km/h (0 Bft) 0,00 %
25.08.2015 15:09 20,8 C 33 % 1019,7 hPa 0,0 l/m 1,4 km/h (1 Bft) W-NW 286 0 min 0,000 mm 1,0 UV-I 195 W/m 3,9 C 20,8 C 4,0 km/h (1 Bft) 0,00 %
25.08.2015 15:14 20,6 C 32 % 1020,1 hPa 0,0 l/m 0,0 km/h (0 Bft) O-NO 75 0 min 0,000 mm 1,0 UV-I 182 W/m 3,3 C 20,6 C 0,0 km/h (0 Bft) 0,00 %
25.08.2015 15:19 20,4 C 35 % 1020,0 hPa 0,0 l/m 1,8 km/h (1 Bft) N-NW 347 0 min 0,000 mm 1,0 UV-I 174 W/m 4,4 C 20,4 C 4,0 km/h (1 Bft) 0,00 %
25.08.2015 15:24 20,2 C 36 % 1020,0 hPa 0,0 l/m 0,0 km/h (0 Bft) N 358 0 min 0,000 mm 1,0 UV-I 187 W/m 4,7 C 20,2 C 0,0 km/h (0 Bft) 0,00 %
25.08.2015 15:29 20,0 C 46 % 1020,1 hPa 0,0 l/m 0,0 km/h (0 Bft) SW 226 0 min 0,000 mm 1,0 UV-I 187 W/m 8,0 C 20,0 C 0,0 km/h (0 Bft) 0,00 %
25.08.2015 15:34 19,8 C 47 % 1020,0 hPa 0,0 l/m 0,0 km/h (0 Bft) N-NO 24 0 min 0,000 mm 1,0 UV-I 202 W/m 8,2 C 19,8 C 0,0 km/h (0 Bft) 0,00 %
25.08.2015 15:39 19,5 C 50 % 1020,1 hPa 0,0 l/m 0,0 km/h (0 Bft) NO 44 0 min 0,000 mm 1,0 UV-I 226 W/m 8,8 C 19,5 C 0,0 km/h (0 Bft) 0,00 %
25.08.2015 15:44 19,3 C 45 % 1020,1 hPa 0,0 l/m 0,0 km/h (0 Bft) W-NW 290 0 min 0,000 mm 1,0 UV-I 300 W/m 7,1 C 19,3 C 0,0 km/h (0 Bft) 0,00 %
25.08.2015 15:49 19,3 C 44 % 1019,9 hPa 0,0 l/m 0,0 km/h (0 Bft) N 5 0 min 0,000 mm 1,0 UV-I 257 W/m 6,7 C 19,3 C 0,0 km/h (0 Bft) 0,00 %
25.08.2015 15:54 19,6 C 42 % 1020,0 hPa 0,0 l/m 0,0 km/h (0 Bft) O-SO 111 0 min 0,000 mm 1,0 UV-I 258 W/m 6,3 C 19,6 C 0,0 km/h (0 Bft) 0,00 %
25.08.2015 15:59 19,8 C 41 % 1020,0 hPa 0,0 l/m 0,0 km/h (0 Bft) N 353 0 min 0,000 mm 1,0 UV-I 236 W/m 6,2 C 19,8 C 0,0 km/h (0 Bft) 0,00 %
25.08.2015 16:04 19,9 C 41 % 1019,9 hPa 0,0 l/m 0,0 km/h (0 Bft) N 355 0 min 0,000 mm 1,0 UV-I 260 W/m 6,3 C 19,9 C 0,0 km/h (0 Bft) 0,00 %
25.08.2015 16:09 20,0 C 41 % 1019,8 hPa 0,0 l/m 0,0 km/h (0 Bft) NO 36 0 min 0,000 mm 1,0 UV-I 229 W/m 6,3 C 20,0 C 0,0 km/h (0 Bft) 0,00 %
25.08.2015 16:14 20,1 C 36 % 1020,0 hPa 0,0 l/m 0,4 km/h (0 Bft) W-SW 256 0 min 0,000 mm 1,0 UV-I 188 W/m 4,6 C 20,1 C 4,0 km/h (1 Bft) 0,00 %
25.08.2015 16:19 20,0 C 37 % 1019,9 hPa 0,0 l/m 1,8 km/h (1 Bft) NW 324 0 min 0,000 mm 1,0 UV-I 174 W/m 4,9 C 20,0 C 4,0 km/h (1 Bft) 0,00 %
25.08.2015 16:24 19,7 C 38 % 1020,1 hPa 0,0 l/m 0,0 km/h (0 Bft) N 356 0 min 0,000 mm 1,0 UV-I 175 W/m 5,0 C 19,7 C 0,0 km/h (0 Bft) 0,00 %
25.08.2015 16:29 19,6 C 40 % 1019,9 hPa 0,0 l/m 1,4 km/h (1 Bft) W-NW 301 0 min 0,000 mm 1,0 UV-I 241 W/m 5,6 C 19,6 C 4,0 km/h (1 Bft) 0,00 %
25.08.2015 16:34 19,5 C 41 % 1020,1 hPa 0,0 l/m 0,7 km/h (0 Bft) O 98 0 min 0,000 mm 1,0 UV-I 217 W/m 5,9 C 19,5 C 4,0 km/h (1 Bft) 0,00 %
25.08.2015 16:39 19,6 C 40 % 1020,2 hPa 0,0 l/m 0,0 km/h (0 Bft) N 8 0 min 0,000 mm 1,0 UV-I 189 W/m 5,6 C 19,6 C 0,0 km/h (0 Bft) 0,00 %
25.08.2015 16:44 19,6 C 41 % 1020,1 hPa 0,0 l/m 0,4 km/h (0 Bft) N 355 0 min 0,000 mm 1,0 UV-I 206 W/m 6,0 C 19,6 C 4,0 km/h (1 Bft) 0,00 %
25.08.2015 16:49 19,5 C 42 % 1020,0 hPa 0,0 l/m 0,0 km/h (0 Bft) NO 51 0 min 0,000 mm 1,0 UV-I 184 W/m 6,2 C 19,5 C 0,0 km/h (0 Bft) 0,00 %
25.08.2015 16:54 19,6 C 42 % 1020,1 hPa 0,0 l/m 0,4 km/h (0 Bft) SW 229 0 min 0,000 mm 1,0 UV-I 145 W/m 6,3 C 19,6 C 4,0 km/h (1 Bft) 0,00 %
25.08.2015 16:59 19,6 C 41 % 1020,0 hPa 0,0 l/m 0,4 km/h (0 Bft) N-NW 345 0 min 0,000 mm 1,0 UV-I 130 W/m 6,0 C 19,6 C 4,0 km/h (1 Bft) 0,00 %
25.08.2015 17:04 19,5 C 41 % 1019,9 hPa 0,0 l/m 0,0 km/h (0 Bft) N-NW 330 0 min 0,000 mm 1,0 UV-I 156 W/m 5,9 C 19,5 C 0,0 km/h (0 Bft) 0,00 %
25.08.2015 17:09 19,3 C 43 % 1019,7 hPa 0,0 l/m 0,0 km/h (0 Bft) NO 46 0 min 0,000 mm 1,0 UV-I 162 W/m 6,4 C 19,3 C 0,0 km/h (0 Bft) 0,00 %
25.08.2015 17:14 19,1 C 44 % 1020,0 hPa 0,0 l/m 0,0 km/h (0 Bft) NW 324 0 min 0,000 mm 1,0 UV-I 164 W/m 6,6 C 19,1 C 0,0 km/h (0 Bft) 0,00 %
25.08.2015 17:19 18,9 C 43 % 1019,9 hPa 0,0 l/m 4,3 km/h (1 Bft) W-NW 303 0 min 0,000 mm 1,0 UV-I 168 W/m 6,0 C 18,9 C 7,9 km/h (2 Bft) 0,00 %
25.08.2015 17:24 18,8 C 43 % 1019,9 hPa 0,0 l/m 0,0 km/h (0 Bft) NO 52 0 min 0,000 mm 1,0 UV-I 148 W/m 6,0 C 18,8 C 0,0 km/h (0 Bft) 0,00 %
25.08.2015 17:29 18,9 C 43 % 1019,8 hPa 0,0 l/m 0,0 km/h (0 Bft) N-NO 24 0 min 0,000 mm 1,0 UV-I 137 W/m 6,0 C 18,9 C 0,0 km/h (0 Bft) 0,00 %
25.08.2015 17:34 19,0 C 42 % 1019,6 hPa 0,0 l/m 0,0 km/h (0 Bft) W-SW 256 0 min 0,000 mm 1,0 UV-I 112 W/m 5,8 C 19,0 C 0,0 km/h (0 Bft) 0,00 %
25.08.2015 17:39 18,9 C 41 % 1019,7 hPa 0,0 l/m 0,0 km/h (0 Bft) O-NO 60 0 min 0,000 mm 0,0 UV-I 105 W/m 5,4 C 18,9 C 0,0 km/h (0 Bft) 0,00 %
25.08.2015 17:44 18,8 C 41 % 1019,8 hPa 0,0 l/m 2,9 km/h (1 Bft) N-NW 333 0 min 0,000 mm 1,0 UV-I 118 W/m 5,3 C 18,8 C 4,0 km/h (1 Bft) 0,00 %
25.08.2015 17:49 18,7 C 44 % 1020,2 hPa 0,0 l/m 2,9 km/h (1 Bft) W-NW 288 0 min 0,000 mm 1,0 UV-I 171 W/m 6,2 C 18,7 C 4,0 km/h (1 Bft) 0,00 %
25.08.2015 17:54 18,7 C 50 % 1020,1 hPa 0,0 l/m 0,4 km/h (0 Bft) SW 230 5 min 0,000 mm 1,0 UV-I 208 W/m 8,1 C 18,7 C 4,0 km/h (1 Bft) 0,00 %
25.08.2015 17:59 18,7 C 48 % 1020,1 hPa 0,0 l/m 0,0 km/h (0 Bft) NO 48 0 min 0,000 mm 1,0 UV-I 166 W/m 7,5 C 18,7 C 0,0 km/h (0 Bft) 0,00 %
25.08.2015 18:04 18,7 C 50 % 1020,1 hPa 0,0 l/m 0,0 km/h (0 Bft) W-SW 247 0 min 0,000 mm 1,0 UV-I 143 W/m 8,1 C 18,7 C 0,0 km/h (0 Bft) 0,00 %
25.08.2015 18:09 18,7 C 52 % 1020,0 hPa 0,0 l/m 0,0 km/h (0 Bft) NO 39 0 min 0,000 mm 1,0 UV-I 149 W/m 8,6 C 18,7 C 0,0 km/h (0 Bft) 0,00 %
25.08.2015 18:14 18,7 C 49 % 1020,2 hPa 0,0 l/m 0,0 km/h (0 Bft) N 352 0 min 0,000 mm 1,0 UV-I 138 W/m 7,8 C 18,7 C 0,0 km/h (0 Bft) 0,00 %
25.08.2015 18:19 18,7 C 47 % 1020,1 hPa 0,0 l/m 0,0 km/h (0 Bft) NO 34 0 min 0,000 mm 1,0 UV-I 112 W/m 7,2 C 18,7 C 0,0 km/h (0 Bft) 0,00 %
25.08.2015 18:24 18,5 C 45 % 1020,2 hPa 0,0 l/m 0,0 km/h (0 Bft) W-SW 256 0 min 0,000 mm 0,0 UV-I 98 W/m 6,3 C 18,5 C 0,0 km/h (0 Bft) 0,00 %
25.08.2015 18:29 18,4 C 44 % 1020,2 hPa 0,0 l/m 0,0 km/h (0 Bft) NO 42 0 min 0,000 mm 0,0 UV-I 101 W/m 5,9 C 18,4 C 0,0 km/h (0 Bft) 0,00 %
25.08.2015 18:34 18,2 C 45 % 1020,2 hPa 0,0 l/m 0,0 km/h (0 Bft) N-NO 30 0 min 0,000 mm 0,0 UV-I 110 W/m 6,1 C 18,2 C 0,0 km/h (0 Bft) 0,00 %
25.08.2015 18:39 18,2 C 46 % 1020,3 hPa 0,0 l/m 0,0 km/h (0 Bft) N-NO 26 0 min 0,000 mm 0,0 UV-I 95 W/m 6,4 C 18,2 C 0,0 km/h (0 Bft) 0,00 %
25.08.2015 18:44 18,2 C 46 % 1020,0 hPa 0,0 l/m 0,0 km/h (0 Bft) NO 46 0 min 0,000 mm 0,0 UV-I 86 W/m 6,4 C 18,2 C 0,0 km/h (0 Bft) 0,00 %
25.08.2015 18:49 18,2 C 46 % 1020,1 hPa 0,0 l/m 0,0 km/h (0 Bft) NO 52 0 min 0,000 mm 0,0 UV-I 78 W/m 6,4 C 18,2 C 0,0 km/h (0 Bft) 0,00 %
25.08.2015 18:54 18,1 C 47 % 1020,0 hPa 0,0 l/m 0,0 km/h (0 Bft) NO 42 0 min 0,000 mm 0,0 UV-I 89 W/m 6,6 C 18,1 C 0,0 km/h (0 Bft) 0,00 %
25.08.2015 18:59 17,9 C 48 % 1019,8 hPa 0,0 l/m 0,0 km/h (0 Bft) NO 46 0 min 0,000 mm 0,0 UV-I 80 W/m 6,7 C 17,9 C 0,0 km/h (0 Bft) 0,00 %
25.08.2015 19:04 17,7 C 50 % 1020,0 hPa 0,0 l/m 0,0 km/h (0 Bft) NO 53 5 min 0,000 mm 0,0 UV-I 126 W/m 7,1 C 17,7 C 0,0 km/h (0 Bft) 0,00 %
25.08.2015 19:09 17,6 C 50 % 1019,8 hPa 0,0 l/m 0,0 km/h (0 Bft) N 355 5 min 0,000 mm 0,0 UV-I 110 W/m 7,1 C 17,6 C 0,0 km/h (0 Bft) 0,00 %
25.08.2015 19:14 17,5 C 51 % 1019,9 hPa 0,0 l/m 0,0 km/h (0 Bft) NO 51 5 min 0,000 mm 0,0 UV-I 173 W/m 7,3 C 17,5 C 0,0 km/h (0 Bft) 0,00 %
25.08.2015 19:19 17,3 C 50 % 1019,9 hPa 0,0 l/m 0,0 km/h (0 Bft) NO 47 5 min 0,000 mm 0,0 UV-I 58 W/m 6,8 C 17,3 C 0,0 km/h (0 Bft) 0,00 %
25.08.2015 19:24 17,3 C 51 % 1019,7 hPa 0,0 l/m 0,0 km/h (0 Bft) NO 46 5 min 0,000 mm 0,0 UV-I 55 W/m 7,1 C 17,3 C 0,0 km/h (0 Bft) 0,00 %
25.08.2015 19:29 17,1 C 49 % 1019,6 hPa 0,0 l/m 0,0 km/h (0 Bft) NO 47 5 min 0,000 mm 0,0 UV-I 43 W/m 6,3 C 17,1 C 0,0 km/h (0 Bft) 0,00 %
25.08.2015 19:34 17,0 C 50 % 1019,7 hPa 0,0 l/m 0,0 km/h (0 Bft) NO 40 5 min 0,000 mm 0,0 UV-I 34 W/m 6,5 C 17,0 C 0,0 km/h (0 Bft) 0,00 %
25.08.2015 19:39 16,8 C 51 % 1019,6 hPa 0,0 l/m 0,0 km/h (0 Bft) NO 47 5 min 0,000 mm 0,0 UV-I 26 W/m 6,6 C 16,8 C 0,0 km/h (0 Bft) 0,00 %
25.08.2015 19:44 16,5 C 54 % 1019,7 hPa 0,0 l/m 0,0 km/h (0 Bft) NO 44 5 min 0,000 mm 0,0 UV-I 20 W/m 7,2 C 16,5 C 0,0 km/h (0 Bft) 0,00 %
25.08.2015 19:49 16,2 C 59 % 1019,5 hPa 0,0 l/m 0,0 km/h (0 Bft) O-NO 59 5 min 0,000 mm 0,0 UV-I 9 W/m 8,2 C 16,2 C 0,0 km/h (0 Bft) 0,00 %
25.08.2015 19:54 15,8 C 59 % 1019,9 hPa 0,0 l/m 0,0 km/h (0 Bft) NO 52 0 min 0,000 mm 0,0 UV-I 4 W/m 7,8 C 15,8 C 0,0 km/h (0 Bft) 0,00 %
25.08.2015 19:59 15,5 C 60 % 1019,9 hPa 0,0 l/m 0,0 km/h (0 Bft) O 100 0 min 0,000 mm 0,0 UV-I 0 W/m 7,8 C 15,5 C 0,0 km/h (0 Bft) 0,00 %
25.08.2015 20:04 15,2 C 63 % 1020,0 hPa 0,0 l/m 0,0 km/h (0 Bft) NO 55 0 min 0,000 mm 0,0 UV-I 0 W/m 8,2 C 15,2 C 0,0 km/h (0 Bft) 0,00 %
25.08.2015 20:09 15,0 C 63 % 1020,0 hPa 0,0 l/m 0,0 km/h (0 Bft) NO 51 0 min 0,000 mm 0,0 UV-I 0 W/m 8,0 C 15,0 C 0,0 km/h (0 Bft) 0,00 %
25.08.2015 20:14 14,7 C 64 % 1020,0 hPa 0,0 l/m 0,0 km/h (0 Bft) NO 49 0 min 0,000 mm 0,0 UV-I 0 W/m 8,0 C 14,7 C 0,0 km/h (0 Bft) 0,00 %
25.08.2015 20:19 14,4 C 67 % 1020,1 hPa 0,0 l/m 0,0 km/h (0 Bft) NO 48 0 min 0,000 mm 0,0 UV-I 0 W/m 8,4 C 14,4 C 0,0 km/h (0 Bft) 0,00 %
25.08.2015 20:24 14,1 C 71 % 1020,3 hPa 0,0 l/m 0,0 km/h (0 Bft) NO 50 0 min 0,000 mm 0,0 UV-I 0 W/m 8,9 C 14,1 C 0,0 km/h (0 Bft) 0,00 %
25.08.2015 20:29 13,7 C 71 % 1020,2 hPa 0,0 l/m 0,0 km/h (0 Bft) O-NO 70 0 min 0,000 mm 0,0 UV-I 0 W/m 8,5 C 13,7 C 0,0 km/h (0 Bft) 0,00 %
25.08.2015 20:34 13,4 C 73 % 1020,5 hPa 0,0 l/m 0,0 km/h (0 Bft) O 94 0 min 0,000 mm 0,0 UV-I 0 W/m 8,7 C 13,4 C 0,0 km/h (0 Bft) 0,00 %
25.08.2015 20:39 13,3 C 73 % 1020,4 hPa 0,0 l/m 0,0 km/h (0 Bft) O 94 0 min 0,000 mm 0,0 UV-I 0 W/m 8,6 C 13,3 C 0,0 km/h (0 Bft) 0,00 %
25.08.2015 20:44 13,2 C 73 % 1020,6 hPa 0,0 l/m 0,0 km/h (0 Bft) O 94 0 min 0,000 mm 0,0 UV-I 0 W/m 8,5 C 13,2 C 0,0 km/h (0 Bft) 0,00 %
25.08.2015 20:49 13,1 C 74 % 1020,6 hPa 0,0 l/m 0,0 km/h (0 Bft) O 94 0 min 0,000 mm 0,0 UV-I 0 W/m 8,6 C 13,1 C 0,0 km/h (0 Bft) 0,00 %
25.08.2015 20:54 12,9 C 76 % 1020,7 hPa 0,0 l/m 0,0 km/h (0 Bft) O 94 0 min 0,000 mm 0,0 UV-I 0 W/m 8,8 C 12,9 C 0,0 km/h (0 Bft) 0,00 %
25.08.2015 20:59 12,7 C 77 % 1020,5 hPa 0,0 l/m 0,0 km/h (0 Bft) O 93 0 min 0,000 mm 0,0 UV-I 0 W/m 8,8 C 12,7 C 0,0 km/h (0 Bft) 0,00 %
25.08.2015 21:04 12,6 C 78 % 1020,5 hPa 0,0 l/m 0,0 km/h (0 Bft) O 93 0 min 0,000 mm 0,0 UV-I 0 W/m 8,9 C 12,6 C 0,0 km/h (0 Bft) 0,00 %
25.08.2015 21:09 12,4 C 78 % 1020,5 hPa 0,0 l/m 0,0 km/h (0 Bft) O 93 0 min 0,000 mm 0,0 UV-I 0 W/m 8,7 C 12,4 C 0,0 km/h (0 Bft) 0,00 %
25.08.2015 21:14 12,2 C 78 % 1020,7 hPa 0,0 l/m 0,0 km/h (0 Bft) O 93 0 min 0,000 mm 0,0 UV-I 0 W/m 8,5 C 12,2 C 0,0 km/h (0 Bft) 0,00 %
25.08.2015 21:19 12,0 C 79 % 1020,9 hPa 0,0 l/m 0,0 km/h (0 Bft) O 93 0 min 0,000 mm 0,0 UV-I 0 W/m 8,5 C 12,0 C 0,0 km/h (0 Bft) 0,00 %
25.08.2015 21:24 11,8 C 80 % 1020,8 hPa 0,0 l/m 0,0 km/h (0 Bft) O 93 0 min 0,000 mm 0,0 UV-I 0 W/m 8,5 C 11,8 C 0,0 km/h (0 Bft) 0,00 %
25.08.2015 21:29 11,6 C 80 % 1020,8 hPa 0,0 l/m 0,0 km/h (0 Bft) O 93 0 min 0,000 mm 0,0 UV-I 0 W/m 8,3 C 11,6 C 0,0 km/h (0 Bft) 0,00 %
25.08.2015 21:34 11,4 C 81 % 1020,8 hPa 0,0 l/m 0,0 km/h (0 Bft) O 93 0 min 0,000 mm 0,0 UV-I 0 W/m 8,3 C 11,4 C 0,0 km/h (0 Bft) 0,00 %
25.08.2015 21:39 11,2 C 82 % 1020,9 hPa 0,0 l/m 0,0 km/h (0 Bft) O 93 0 min 0,000 mm 0,0 UV-I 0 W/m 8,2 C 11,2 C 0,0 km/h (0 Bft) 0,00 %
25.08.2015 21:44 11,1 C 82 % 1021,0 hPa 0,0 l/m 0,0 km/h (0 Bft) O 93 0 min 0,000 mm 0,0 UV-I 0 W/m 8,1 C 11,1 C 0,0 km/h (0 Bft) 0,00 %
25.08.2015 21:49 10,9 C 83 % 1021,2 hPa 0,0 l/m 0,0 km/h (0 Bft) O 93 0 min 0,000 mm 0,0 UV-I 0 W/m 8,1 C 10,9 C 0,0 km/h (0 Bft) 0,00 %
25.08.2015 21:54 10,8 C 83 % 1020,6 hPa 0,0 l/m 0,0 km/h (0 Bft) O 93 0 min 0,000 mm 0,0 UV-I 0 W/m 8,0 C 10,8 C 0,0 km/h (0 Bft) 0,00 %
25.08.2015 21:59 10,7 C 83 % 1020,8 hPa 0,0 l/m 0,0 km/h (0 Bft) O 94 0 min 0,000 mm 0,0 UV-I 0 W/m 7,9 C 10,7 C 0,0 km/h (0 Bft) 0,00 %
25.08.2015 22:04 10,7 C 83 % 1021,0 hPa 0,0 l/m 0,0 km/h (0 Bft) O 93 0 min 0,000 mm 0,0 UV-I 0 W/m 7,9 C 10,7 C 0,0 km/h (0 Bft) 0,00 %
25.08.2015 22:09 10,7 C 83 % 1021,0 hPa 0,0 l/m 0,0 km/h (0 Bft) O 93 0 min 0,000 mm 0,0 UV-I 0 W/m 7,9 C 10,7 C 0,0 km/h (0 Bft) 0,00 %
25.08.2015 22:14 10,7 C 83 % 1021,0 hPa 0,0 l/m 0,0 km/h (0 Bft) O 93 0 min 0,000 mm 0,0 UV-I 0 W/m 7,9 C 10,7 C 0,0 km/h (0 Bft) 0,00 %
25.08.2015 22:19 10,6 C 83 % 1021,2 hPa 0,0 l/m 0,0 km/h (0 Bft) O 93 0 min 0,000 mm 0,0 UV-I 0 W/m 7,8 C 10,6 C 0,0 km/h (0 Bft) 0,00 %
25.08.2015 22:24 10,6 C 83 % 1021,1 hPa 0,0 l/m 0,0 km/h (0 Bft) O 93 0 min 0,000 mm 0,0 UV-I 0 W/m 7,8 C 10,6 C 0,0 km/h (0 Bft) 0,00 %
25.08.2015 22:29 10,5 C 84 % 1021,2 hPa 0,0 l/m 0,0 km/h (0 Bft) O 93 0 min 0,000 mm 0,0 UV-I 0 W/m 7,9 C 10,5 C 0,0 km/h (0 Bft) 0,00 %
25.08.2015 22:34 10,4 C 84 % 1021,3 hPa 0,0 l/m 0,0 km/h (0 Bft) NO 46 0 min 0,000 mm 0,0 UV-I 0 W/m 7,8 C 10,4 C 0,0 km/h (0 Bft) 0,00 %
25.08.2015 22:39 10,4 C 85 % 1021,2 hPa 0,0 l/m 0,0 km/h (0 Bft) NO 52 0 min 0,000 mm 0,0 UV-I 0 W/m 8,0 C 10,4 C 0,0 km/h (0 Bft) 0,00 %
25.08.2015 22:44 10,3 C 85 % 1021,3 hPa 0,0 l/m 0,0 km/h (0 Bft) NO 52 0 min 0,000 mm 0,0 UV-I 0 W/m 7,9 C 10,3 C 0,0 km/h (0 Bft) 0,00 %
25.08.2015 22:49 10,2 C 87 % 1021,1 hPa 0,0 l/m 0,0 km/h (0 Bft) NO 52 0 min 0,000 mm 0,0 UV-I 0 W/m 8,1 C 10,2 C 0,0 km/h (0 Bft) 0,00 %
25.08.2015 22:54 10,1 C 87 % 1021,1 hPa 0,0 l/m 0,0 km/h (0 Bft) NO 52 0 min 0,000 mm 0,0 UV-I 0 W/m 8,0 C 10,1 C 0,0 km/h (0 Bft) 0,00 %
25.08.2015 22:59 10,0 C 88 % 1021,1 hPa 0,0 l/m 0,0 km/h (0 Bft) NO 52 0 min 0,000 mm 0,0 UV-I 0 W/m 8,1 C 10,0 C 0,0 km/h (0 Bft) 0,00 %
25.08.2015 23:04 9,9 C 89 % 1021,2 hPa 0,0 l/m 0,0 km/h (0 Bft) O-NO 62 0 min 0,000 mm 0,0 UV-I 0 W/m 8,2 C 9,9 C 0,0 km/h (0 Bft) 0,00 %
25.08.2015 23:09 9,8 C 89 % 1021,3 hPa 0,0 l/m 0,0 km/h (0 Bft) O-NO 62 0 min 0,000 mm 0,0 UV-I 0 W/m 8,1 C 9,8 C 0,0 km/h (0 Bft) 0,00 %
25.08.2015 23:14 9,8 C 89 % 1021,5 hPa 0,0 l/m 0,0 km/h (0 Bft) O-NO 61 0 min 0,000 mm 0,0 UV-I 0 W/m 8,1 C 9,8 C 0,0 km/h (0 Bft) 0,00 %
25.08.2015 23:19 9,7 C 89 % 1021,2 hPa 0,0 l/m 0,0 km/h (0 Bft) O-NO 61 0 min 0,000 mm 0,0 UV-I 0 W/m 8,0 C 9,7 C 0,0 km/h (0 Bft) 0,00 %
25.08.2015 23:24 9,7 C 89 % 1021,7 hPa 0,0 l/m 0,0 km/h (0 Bft) O-NO 62 0 min 0,000 mm 0,0 UV-I 0 W/m 8,0 C 9,7 C 0,0 km/h (0 Bft) 0,00 %
25.08.2015 23:29 9,6 C 89 % 1021,1 hPa 0,0 l/m 0,0 km/h (0 Bft) O-NO 61 0 min 0,000 mm 0,0 UV-I 0 W/m 7,9 C 9,6 C 0,0 km/h (0 Bft) 0,00 %
25.08.2015 23:34 9,5 C 90 % 1021,5 hPa 0,0 l/m 0,0 km/h (0 Bft) O-NO 61 0 min 0,000 mm 0,0 UV-I 0 W/m 7,9 C 9,5 C 0,0 km/h (0 Bft) 0,00 %
25.08.2015 23:39 9,5 C 90 % 1021,5 hPa 0,0 l/m 0,0 km/h (0 Bft) O-NO 61 0 min 0,000 mm 0,0 UV-I 0 W/m 7,9 C 9,5 C 0,0 km/h (0 Bft) 0,00 %
25.08.2015 23:44 9,5 C 90 % 1021,4 hPa 0,0 l/m 0,0 km/h (0 Bft) O-NO 62 0 min 0,000 mm 0,0 UV-I 0 W/m 7,9 C 9,5 C 0,0 km/h (0 Bft) 0,00 %
25.08.2015 23:49 9,5 C 91 % 1021,4 hPa 0,0 l/m 0,0 km/h (0 Bft) O-NO 61 0 min 0,000 mm 0,0 UV-I 0 W/m 8,1 C 9,5 C 0,0 km/h (0 Bft) 0,00 %
25.08.2015 23:54 9,5 C 91 % 1021,5 hPa 0,0 l/m 0,0 km/h (0 Bft) O-NO 62 0 min 0,000 mm 0,0 UV-I 0 W/m 8,1 C 9,5 C 0,0 km/h (0 Bft) 0,00 %
25.08.2015 23:59 9,7 C 91 % 1021,5 hPa 0,0 l/m 0,0 km/h (0 Bft) O-NO 61 0 min 0,000 mm 0,0 UV-I 0 W/m 8,3 C 9,7 C 0,0 km/h (0 Bft) 0,00 %
_ Min-Zeit 23:34 14:49 00:03 - 01:23 - - - - - - 13:59 23:34 01:23 00:03
Minimum _ 9,5 C 29 % 1011,2 hPa - 0,0 km/h (0 Bft) - - - - - - 2,8 C 9,5 C 0,0 km/h (0 Bft) 0,00 %
_ Max-Zeit 14:44 23:49 23:24 07:43 02:28 - - 10:39 00:03 12:04 12:04 00:03 14:44 02:28 00:03
Maximum _ 22,1 C 91 % 1021,7 hPa 0,3 l/m 15,8 km/h
W-NW (3 Bft)
- - 5 min 0,000 mm 4,0 UV-I 1064 W/m 14,4 C 22,1 C 24,1 km/h
W-NW (4 Bft)
0,00 %
Durchschnitt _ 16,8 C 62 % 1018,7 hPa #0,3 l/m 1,7 km/h (1 Bft) W-SW - #2:05 h #0,000 mm 1,3 UV-I 226 W/m 8,7 C 16,7 C 3,1 km/h (1 Bft) 0,00 %